sensor_id;sensor_type;location;lat;lon;timestamp;P1;durP1;ratioP1;P2;durP2;ratioP2
71777;SDS011;59609;52.430;4.668;2022-10-16T00:00:40;2.67;;;0.77;;
71777;SDS011;59609;52.430;4.668;2022-10-16T00:03:06;3.53;;;0.60;;
71777;SDS011;59609;52.430;4.668;2022-10-16T00:05:32;4.13;;;0.98;;
71777;SDS011;59609;52.430;4.668;2022-10-16T00:07:57;3.33;;;0.90;;
71777;SDS011;59609;52.430;4.668;2022-10-16T00:10:23;3.40;;;0.80;;
71777;SDS011;59609;52.430;4.668;2022-10-16T00:12:48;6.47;;;0.73;;
71777;SDS011;59609;52.430;4.668;2022-10-16T00:15:14;2.17;;;0.60;;
71777;SDS011;59609;52.430;4.668;2022-10-16T00:17:40;3.72;;;1.00;;
71777;SDS011;59609;52.430;4.668;2022-10-16T00:20:05;2.63;;;1.05;;
71777;SDS011;59609;52.430;4.668;2022-10-16T00:22:32;5.30;;;1.08;;
71777;SDS011;59609;52.430;4.668;2022-10-16T00:24:57;2.33;;;0.80;;
71777;SDS011;59609;52.430;4.668;2022-10-16T00:27:23;3.60;;;0.95;;
71777;SDS011;59609;52.430;4.668;2022-10-16T00:29:51;3.10;;;1.10;;
71777;SDS011;59609;52.430;4.668;2022-10-16T00:32:18;4.80;;;0.90;;
71777;SDS011;59609;52.430;4.668;2022-10-16T00:34:44;4.22;;;0.88;;
71777;SDS011;59609;52.430;4.668;2022-10-16T00:37:10;2.15;;;0.95;;
71777;SDS011;59609;52.430;4.668;2022-10-16T00:39:35;1.58;;;0.82;;
71777;SDS011;59609;52.430;4.668;2022-10-16T00:42:01;3.47;;;0.82;;
71777;SDS011;59609;52.430;4.668;2022-10-16T00:45:12;1.98;;;0.80;;
71777;SDS011;59609;52.430;4.668;2022-10-16T00:47:38;3.00;;;0.93;;
71777;SDS011;59609;52.430;4.668;2022-10-16T00:50:09;2.65;;;0.98;;
71777;SDS011;59609;52.430;4.668;2022-10-16T00:52:35;2.97;;;0.85;;
71777;SDS011;59609;52.430;4.668;2022-10-16T00:55:02;1.48;;;0.77;;
71777;SDS011;59609;52.430;4.668;2022-10-16T00:57:29;2.88;;;1.10;;
71777;SDS011;59609;52.430;4.668;2022-10-16T00:59:55;1.02;;;0.85;;
71777;SDS011;59609;52.430;4.668;2022-10-16T01:02:21;1.52;;;0.70;;
71777;SDS011;59609;52.430;4.668;2022-10-16T01:04:47;2.22;;;0.73;;
71777;SDS011;59609;52.430;4.668;2022-10-16T01:10:48;1.23;;;1.00;;
71777;SDS011;59609;52.430;4.668;2022-10-16T01:13:06;2.75;;;0.80;;
71777;SDS011;59609;52.430;4.668;2022-10-16T01:18:34;2.65;;;0.95;;
71777;SDS011;59609;52.430;4.668;2022-10-16T01:21:16;2.90;;;1.10;;
71777;SDS011;59609;52.430;4.668;2022-10-16T01:24:02;2.35;;;0.63;;
71777;SDS011;59609;52.430;4.668;2022-10-16T01:29:27;4.78;;;0.90;;
71777;SDS011;59609;52.430;4.668;2022-10-16T01:32:00;2.38;;;0.85;;
71777;SDS011;59609;52.430;4.668;2022-10-16T01:34:35;1.75;;;0.60;;
71777;SDS011;59609;52.430;4.668;2022-10-16T01:37:07;4.00;;;0.90;;
71777;SDS011;59609;52.430;4.668;2022-10-16T01:39:37;1.13;;;0.73;;
71777;SDS011;59609;52.430;4.668;2022-10-16T01:44:40;2.00;;;0.80;;
71777;SDS011;59609;52.430;4.668;2022-10-16T01:47:07;2.45;;;1.35;;
71777;SDS011;59609;52.430;4.668;2022-10-16T01:49:36;2.83;;;0.60;;
71777;SDS011;59609;52.430;4.668;2022-10-16T01:52:07;1.90;;;0.77;;
71777;SDS011;59609;52.430;4.668;2022-10-16T01:54:37;2.22;;;0.70;;
71777;SDS011;59609;52.430;4.668;2022-10-16T01:57:07;1.52;;;0.70;;
71777;SDS011;59609;52.430;4.668;2022-10-16T01:59:35;2.38;;;0.73;;
71777;SDS011;59609;52.430;4.668;2022-10-16T02:02:06;2.58;;;0.82;;
71777;SDS011;59609;52.430;4.668;2022-10-16T02:04:36;2.08;;;0.82;;
71777;SDS011;59609;52.430;4.668;2022-10-16T02:07:07;2.45;;;0.63;;
71777;SDS011;59609;52.430;4.668;2022-10-16T02:09:33;1.40;;;0.90;;
71777;SDS011;59609;52.430;4.668;2022-10-16T02:12:00;2.58;;;0.82;;
71777;SDS011;59609;52.430;4.668;2022-10-16T02:14:47;2.67;;;0.60;;
71777;SDS011;59609;52.430;4.668;2022-10-16T02:17:13;2.95;;;0.75;;
71777;SDS011;59609;52.430;4.668;2022-10-16T02:19:40;3.58;;;0.88;;
71777;SDS011;59609;52.430;4.668;2022-10-16T02:22:07;4.28;;;0.95;;
71777;SDS011;59609;52.430;4.668;2022-10-16T02:27:30;4.28;;;0.70;;
71777;SDS011;59609;52.430;4.668;2022-10-16T02:30:25;1.50;;;0.73;;
71777;SDS011;59609;52.430;4.668;2022-10-16T02:33:09;3.20;;;0.80;;
71777;SDS011;59609;52.430;4.668;2022-10-16T02:35:38;3.78;;;1.05;;
71777;SDS011;59609;52.430;4.668;2022-10-16T02:38:05;0.60;;;0.60;;
71777;SDS011;59609;52.430;4.668;2022-10-16T02:40:32;1.77;;;0.70;;
71777;SDS011;59609;52.430;4.668;2022-10-16T02:42:58;1.58;;;0.70;;
71777;SDS011;59609;52.430;4.668;2022-10-16T02:45:24;1.13;;;0.60;;
71777;SDS011;59609;52.430;4.668;2022-10-16T02:47:49;6.20;;;0.90;;
71777;SDS011;59609;52.430;4.668;2022-10-16T02:50:15;3.17;;;0.73;;
71777;SDS011;59609;52.430;4.668;2022-10-16T02:52:41;1.40;;;0.63;;
71777;SDS011;59609;52.430;4.668;2022-10-16T02:55:07;2.17;;;0.80;;
71777;SDS011;59609;52.430;4.668;2022-10-16T02:57:32;3.28;;;0.88;;
71777;SDS011;59609;52.430;4.668;2022-10-16T02:59:58;5.90;;;2.15;;
71777;SDS011;59609;52.430;4.668;2022-10-16T03:02:24;1.40;;;0.75;;
71777;SDS011;59609;52.430;4.668;2022-10-16T03:04:50;3.30;;;0.88;;
71777;SDS011;59609;52.430;4.668;2022-10-16T03:07:15;2.33;;;0.90;;
71777;SDS011;59609;52.430;4.668;2022-10-16T03:09:40;1.42;;;0.70;;
71777;SDS011;59609;52.430;4.668;2022-10-16T03:12:06;3.15;;;0.80;;
71777;SDS011;59609;52.430;4.668;2022-10-16T03:14:31;2.60;;;0.90;;
71777;SDS011;59609;52.430;4.668;2022-10-16T03:16:57;3.10;;;0.80;;
71777;SDS011;59609;52.430;4.668;2022-10-16T03:19:22;3.13;;;1.05;;
71777;SDS011;59609;52.430;4.668;2022-10-16T03:21:47;4.43;;;1.30;;
71777;SDS011;59609;52.430;4.668;2022-10-16T03:24:13;1.63;;;0.80;;
71777;SDS011;59609;52.430;4.668;2022-10-16T03:26:38;2.33;;;1.00;;
71777;SDS011;59609;52.430;4.668;2022-10-16T03:29:04;3.03;;;1.27;;
71777;SDS011;59609;52.430;4.668;2022-10-16T03:31:30;3.10;;;1.00;;
71777;SDS011;59609;52.430;4.668;2022-10-16T03:33:55;3.88;;;1.10;;
71777;SDS011;59609;52.430;4.668;2022-10-16T03:36:21;4.85;;;1.20;;
71777;SDS011;59609;52.430;4.668;2022-10-16T03:38:47;4.00;;;1.20;;
71777;SDS011;59609;52.430;4.668;2022-10-16T03:41:12;2.35;;;1.20;;
71777;SDS011;59609;52.430;4.668;2022-10-16T03:43:37;2.22;;;1.10;;
71777;SDS011;59609;52.430;4.668;2022-10-16T03:46:03;2.90;;;1.00;;
71777;SDS011;59609;52.430;4.668;2022-10-16T03:48:28;4.82;;;1.30;;
71777;SDS011;59609;52.430;4.668;2022-10-16T03:50:54;5.93;;;1.23;;
71777;SDS011;59609;52.430;4.668;2022-10-16T03:53:20;1.55;;;1.10;;
71777;SDS011;59609;52.430;4.668;2022-10-16T03:55:45;2.47;;;1.40;;
71777;SDS011;59609;52.430;4.668;2022-10-16T03:58:11;2.88;;;1.13;;
71777;SDS011;59609;52.430;4.668;2022-10-16T04:00:46;4.25;;;1.13;;
71777;SDS011;59609;52.430;4.668;2022-10-16T04:03:12;13.07;;;3.17;;
71777;SDS011;59609;52.430;4.668;2022-10-16T04:05:38;2.60;;;0.90;;
71777;SDS011;59609;52.430;4.668;2022-10-16T04:08:04;3.20;;;1.00;;
71777;SDS011;59609;52.430;4.668;2022-10-16T04:10:29;3.80;;;1.30;;
71777;SDS011;59609;52.430;4.668;2022-10-16T04:12:54;5.40;;;1.05;;
71777;SDS011;59609;52.430;4.668;2022-10-16T04:15:21;2.28;;;1.20;;
71777;SDS011;59609;52.430;4.668;2022-10-16T04:17:47;2.15;;;1.00;;
71777;SDS011;59609;52.430;4.668;2022-10-16T04:20:12;3.08;;;1.33;;
71777;SDS011;59609;52.430;4.668;2022-10-16T04:22:37;2.75;;;1.00;;
71777;SDS011;59609;52.430;4.668;2022-10-16T04:25:04;2.53;;;0.90;;
71777;SDS011;59609;52.430;4.668;2022-10-16T04:27:29;5.18;;;0.90;;
71777;SDS011;59609;52.430;4.668;2022-10-16T04:29:56;2.33;;;1.30;;
71777;SDS011;59609;52.430;4.668;2022-10-16T04:32:22;4.15;;;1.00;;
71777;SDS011;59609;52.430;4.668;2022-10-16T04:34:47;1.90;;;1.02;;
71777;SDS011;59609;52.430;4.668;2022-10-16T04:37:13;3.63;;;1.00;;
71777;SDS011;59609;52.430;4.668;2022-10-16T04:39:38;7.07;;;1.05;;
71777;SDS011;59609;52.430;4.668;2022-10-16T04:42:03;6.57;;;1.05;;
71777;SDS011;59609;52.430;4.668;2022-10-16T04:44:29;4.70;;;1.02;;
71777;SDS011;59609;52.430;4.668;2022-10-16T04:46:54;6.70;;;1.23;;
71777;SDS011;59609;52.430;4.668;2022-10-16T04:49:20;2.85;;;0.82;;
71777;SDS011;59609;52.430;4.668;2022-10-16T04:51:45;5.20;;;1.10;;
71777;SDS011;59609;52.430;4.668;2022-10-16T04:54:10;6.30;;;1.15;;
71777;SDS011;59609;52.430;4.668;2022-10-16T04:56:36;3.15;;;0.98;;
71777;SDS011;59609;52.430;4.668;2022-10-16T04:59:08;4.15;;;1.15;;
71777;SDS011;59609;52.430;4.668;2022-10-16T05:01:34;6.32;;;1.00;;
71777;SDS011;59609;52.430;4.668;2022-10-16T05:03:59;2.85;;;0.88;;
71777;SDS011;59609;52.430;4.668;2022-10-16T05:06:25;5.25;;;1.25;;
71777;SDS011;59609;52.430;4.668;2022-10-16T05:08:50;3.30;;;0.90;;
71777;SDS011;59609;52.430;4.668;2022-10-16T05:11:15;2.47;;;0.73;;
71777;SDS011;59609;52.430;4.668;2022-10-16T05:13:41;8.23;;;1.02;;
71777;SDS011;59609;52.430;4.668;2022-10-16T05:16:06;8.43;;;1.17;;
71777;SDS011;59609;52.430;4.668;2022-10-16T05:18:31;2.83;;;0.90;;
71777;SDS011;59609;52.430;4.668;2022-10-16T05:20:57;3.28;;;0.90;;
71777;SDS011;59609;52.430;4.668;2022-10-16T05:23:22;5.93;;;1.00;;
71777;SDS011;59609;52.430;4.668;2022-10-16T05:25:54;4.88;;;1.08;;
71777;SDS011;59609;52.430;4.668;2022-10-16T05:28:24;4.95;;;0.82;;
71777;SDS011;59609;52.430;4.668;2022-10-16T05:30:50;3.60;;;1.02;;
71777;SDS011;59609;52.430;4.668;2022-10-16T05:33:15;4.85;;;1.00;;
71777;SDS011;59609;52.430;4.668;2022-10-16T05:35:41;3.42;;;0.90;;
71777;SDS011;59609;52.430;4.668;2022-10-16T05:38:06;2.78;;;1.00;;
71777;SDS011;59609;52.430;4.668;2022-10-16T05:40:31;7.15;;;1.00;;
71777;SDS011;59609;52.430;4.668;2022-10-16T05:42:57;9.95;;;1.80;;
71777;SDS011;59609;52.430;4.668;2022-10-16T05:45:22;3.42;;;1.05;;
71777;SDS011;59609;52.430;4.668;2022-10-16T05:47:47;3.50;;;0.98;;
71777;SDS011;59609;52.430;4.668;2022-10-16T05:50:13;3.85;;;1.10;;
71777;SDS011;59609;52.430;4.668;2022-10-16T05:52:38;4.32;;;1.23;;
71777;SDS011;59609;52.430;4.668;2022-10-16T05:55:03;5.20;;;1.35;;
71777;SDS011;59609;52.430;4.668;2022-10-16T05:57:29;3.65;;;1.52;;
71777;SDS011;59609;52.430;4.668;2022-10-16T05:59:54;6.13;;;1.60;;
71777;SDS011;59609;52.430;4.668;2022-10-16T06:02:20;3.47;;;1.30;;
71777;SDS011;59609;52.430;4.668;2022-10-16T06:04:45;5.45;;;1.45;;
71777;SDS011;59609;52.430;4.668;2022-10-16T06:07:11;2.15;;;1.25;;
71777;SDS011;59609;52.430;4.668;2022-10-16T06:09:36;2.97;;;1.40;;
71777;SDS011;59609;52.430;4.668;2022-10-16T06:12:01;4.03;;;1.30;;
71777;SDS011;59609;52.430;4.668;2022-10-16T06:14:27;3.30;;;1.48;;
71777;SDS011;59609;52.430;4.668;2022-10-16T06:16:52;4.95;;;1.27;;
71777;SDS011;59609;52.430;4.668;2022-10-16T06:19:18;4.15;;;1.30;;
71777;SDS011;59609;52.430;4.668;2022-10-16T06:21:43;4.85;;;1.33;;
71777;SDS011;59609;52.430;4.668;2022-10-16T06:24:09;8.20;;;1.30;;
71777;SDS011;59609;52.430;4.668;2022-10-16T06:26:34;4.38;;;1.23;;
71777;SDS011;59609;52.430;4.668;2022-10-16T06:29:00;2.50;;;1.30;;
71777;SDS011;59609;52.430;4.668;2022-10-16T06:31:25;5.10;;;1.38;;
71777;SDS011;59609;52.430;4.668;2022-10-16T06:33:54;6.97;;;1.90;;
71777;SDS011;59609;52.430;4.668;2022-10-16T06:36:21;5.85;;;1.33;;
71777;SDS011;59609;52.430;4.668;2022-10-16T06:38:46;4.47;;;1.30;;
71777;SDS011;59609;52.430;4.668;2022-10-16T06:41:12;1.98;;;1.17;;
71777;SDS011;59609;52.430;4.668;2022-10-16T06:43:40;3.63;;;1.38;;
71777;SDS011;59609;52.430;4.668;2022-10-16T06:46:06;4.15;;;1.30;;
71777;SDS011;59609;52.430;4.668;2022-10-16T06:48:34;5.65;;;1.65;;
71777;SDS011;59609;52.430;4.668;2022-10-16T06:53:29;4.05;;;1.67;;
71777;SDS011;59609;52.430;4.668;2022-10-16T06:55:56;3.75;;;1.52;;
71777;SDS011;59609;52.430;4.668;2022-10-16T06:58:22;6.90;;;1.70;;
71777;SDS011;59609;52.430;4.668;2022-10-16T07:00:47;10.27;;;2.55;;
71777;SDS011;59609;52.430;4.668;2022-10-16T07:03:13;4.90;;;2.10;;
71777;SDS011;59609;52.430;4.668;2022-10-16T07:05:39;4.95;;;1.60;;
71777;SDS011;59609;52.430;4.668;2022-10-16T07:08:06;6.15;;;1.80;;
71777;SDS011;59609;52.430;4.668;2022-10-16T07:10:32;4.78;;;1.60;;
71777;SDS011;59609;52.430;4.668;2022-10-16T07:12:57;8.55;;;2.10;;
71777;SDS011;59609;52.430;4.668;2022-10-16T07:15:24;6.60;;;1.48;;
71777;SDS011;59609;52.430;4.668;2022-10-16T07:17:50;7.07;;;1.55;;
71777;SDS011;59609;52.430;4.668;2022-10-16T07:20:15;4.65;;;1.38;;
71777;SDS011;59609;52.430;4.668;2022-10-16T07:22:41;5.60;;;1.15;;
71777;SDS011;59609;52.430;4.668;2022-10-16T07:25:06;6.03;;;1.35;;
71777;SDS011;59609;52.430;4.668;2022-10-16T07:27:32;5.80;;;1.20;;
71777;SDS011;59609;52.430;4.668;2022-10-16T07:29:57;5.53;;;1.25;;
71777;SDS011;59609;52.430;4.668;2022-10-16T07:32:23;4.15;;;1.17;;
71777;SDS011;59609;52.430;4.668;2022-10-16T07:34:50;4.90;;;1.30;;
71777;SDS011;59609;52.430;4.668;2022-10-16T07:37:16;5.68;;;1.30;;
71777;SDS011;59609;52.430;4.668;2022-10-16T07:39:41;6.97;;;1.35;;
71777;SDS011;59609;52.430;4.668;2022-10-16T07:42:06;6.03;;;1.23;;
71777;SDS011;59609;52.430;4.668;2022-10-16T07:44:32;8.52;;;1.40;;
71777;SDS011;59609;52.430;4.668;2022-10-16T07:46:58;5.43;;;1.90;;
71777;SDS011;59609;52.430;4.668;2022-10-16T07:49:23;8.15;;;1.73;;
71777;SDS011;59609;52.430;4.668;2022-10-16T07:51:49;8.05;;;1.20;;
71777;SDS011;59609;52.430;4.668;2022-10-16T07:54:14;10.43;;;1.85;;
71777;SDS011;59609;52.430;4.668;2022-10-16T07:56:40;8.15;;;1.67;;
71777;SDS011;59609;52.430;4.668;2022-10-16T07:59:05;9.18;;;2.55;;
71777;SDS011;59609;52.430;4.668;2022-10-16T08:01:31;7.13;;;1.45;;
71777;SDS011;59609;52.430;4.668;2022-10-16T08:03:56;12.45;;;1.85;;
71777;SDS011;59609;52.430;4.668;2022-10-16T08:06:22;10.23;;;1.75;;
71777;SDS011;59609;52.430;4.668;2022-10-16T08:08:48;9.20;;;1.48;;
71777;SDS011;59609;52.430;4.668;2022-10-16T08:11:14;5.63;;;1.75;;
71777;SDS011;59609;52.430;4.668;2022-10-16T08:13:40;7.18;;;2.03;;
71777;SDS011;59609;52.430;4.668;2022-10-16T08:16:05;7.47;;;1.70;;
71777;SDS011;59609;52.430;4.668;2022-10-16T08:18:33;14.10;;;1.95;;
71777;SDS011;59609;52.430;4.668;2022-10-16T08:21:00;14.23;;;2.40;;
71777;SDS011;59609;52.430;4.668;2022-10-16T08:23:26;11.63;;;1.88;;
71777;SDS011;59609;52.430;4.668;2022-10-16T08:25:56;13.00;;;2.10;;
71777;SDS011;59609;52.430;4.668;2022-10-16T08:28:26;10.15;;;1.92;;
71777;SDS011;59609;52.430;4.668;2022-10-16T08:30:52;7.82;;;1.50;;
71777;SDS011;59609;52.430;4.668;2022-10-16T08:33:17;9.27;;;1.42;;
71777;SDS011;59609;52.430;4.668;2022-10-16T08:35:49;9.88;;;1.85;;
71777;SDS011;59609;52.430;4.668;2022-10-16T08:38:16;11.43;;;1.73;;
71777;SDS011;59609;52.430;4.668;2022-10-16T08:40:41;12.43;;;2.05;;
71777;SDS011;59609;52.430;4.668;2022-10-16T08:51:00;12.05;;;1.60;;
71777;SDS011;59609;52.430;4.668;2022-10-16T08:53:28;14.38;;;2.47;;
71777;SDS011;59609;52.430;4.668;2022-10-16T08:55:59;5.88;;;1.58;;
71777;SDS011;59609;52.430;4.668;2022-10-16T08:58:28;11.65;;;1.60;;
71777;SDS011;59609;52.430;4.668;2022-10-16T09:00:56;10.25;;;2.20;;
71777;SDS011;59609;52.430;4.668;2022-10-16T09:06:31;10.52;;;1.40;;
71777;SDS011;59609;52.430;4.668;2022-10-16T09:11:41;9.77;;;1.67;;
71777;SDS011;59609;52.430;4.668;2022-10-16T09:16:46;9.17;;;1.60;;
71777;SDS011;59609;52.430;4.668;2022-10-16T09:19:20;4.85;;;1.17;;
71777;SDS011;59609;52.430;4.668;2022-10-16T09:21:51;9.43;;;1.17;;
71777;SDS011;59609;52.430;4.668;2022-10-16T09:24:19;6.55;;;1.38;;
71777;SDS011;59609;52.430;4.668;2022-10-16T09:26:48;8.70;;;1.38;;
71777;SDS011;59609;52.430;4.668;2022-10-16T09:29:15;10.52;;;1.80;;
71777;SDS011;59609;52.430;4.668;2022-10-16T09:31:41;12.25;;;1.58;;
71777;SDS011;59609;52.430;4.668;2022-10-16T09:34:12;13.02;;;1.75;;
71777;SDS011;59609;52.430;4.668;2022-10-16T09:36:49;8.90;;;1.50;;
71777;SDS011;59609;52.430;4.668;2022-10-16T09:39:15;12.25;;;1.88;;
71777;SDS011;59609;52.430;4.668;2022-10-16T09:41:41;7.75;;;1.27;;
71777;SDS011;59609;52.430;4.668;2022-10-16T09:44:26;8.82;;;1.65;;
71777;SDS011;59609;52.430;4.668;2022-10-16T09:47:00;8.85;;;1.77;;
71777;SDS011;59609;52.430;4.668;2022-10-16T09:49:29;11.15;;;1.42;;
71777;SDS011;59609;52.430;4.668;2022-10-16T09:52:14;7.93;;;1.50;;
71777;SDS011;59609;52.430;4.668;2022-10-16T09:54:56;10.65;;;1.50;;
71777;SDS011;59609;52.430;4.668;2022-10-16T09:57:23;9.20;;;1.30;;
71777;SDS011;59609;52.430;4.668;2022-10-16T09:59:56;8.60;;;1.45;;
71777;SDS011;59609;52.430;4.668;2022-10-16T10:02:35;8.65;;;1.42;;
71777;SDS011;59609;52.430;4.668;2022-10-16T10:05:03;12.43;;;1.95;;
71777;SDS011;59609;52.430;4.668;2022-10-16T10:07:32;8.18;;;1.80;;
71777;SDS011;59609;52.430;4.668;2022-10-16T10:10:02;10.70;;;1.27;;
71777;SDS011;59609;52.430;4.668;2022-10-16T10:12:30;10.38;;;1.60;;
71777;SDS011;59609;52.430;4.668;2022-10-16T10:15:07;14.60;;;1.98;;
71777;SDS011;59609;52.430;4.668;2022-10-16T10:17:51;8.48;;;1.45;;
71777;SDS011;59609;52.430;4.668;2022-10-16T10:22:46;14.27;;;1.83;;
71777;SDS011;59609;52.430;4.668;2022-10-16T10:25:14;10.80;;;1.50;;
71777;SDS011;59609;52.430;4.668;2022-10-16T10:33:26;12.10;;;2.08;;
71777;SDS011;59609;52.430;4.668;2022-10-16T10:35:56;11.93;;;3.40;;
71777;SDS011;59609;52.430;4.668;2022-10-16T10:41:12;25.85;;;14.85;;
71777;SDS011;59609;52.430;4.668;2022-10-16T10:46:38;10.52;;;1.65;;
71777;SDS011;59609;52.430;4.668;2022-10-16T10:54:45;7.00;;;1.38;;
71777;SDS011;59609;52.430;4.668;2022-10-16T10:57:36;10.05;;;1.55;;
71777;SDS011;59609;52.430;4.668;2022-10-16T11:00:29;9.00;;;1.77;;
71777;SDS011;59609;52.430;4.668;2022-10-16T11:05:45;9.32;;;1.50;;
71777;SDS011;59609;52.430;4.668;2022-10-16T11:08:30;4.80;;;1.20;;
71777;SDS011;59609;52.430;4.668;2022-10-16T11:11:05;10.40;;;1.70;;
71777;SDS011;59609;52.430;4.668;2022-10-16T11:13:44;14.32;;;1.65;;
71777;SDS011;59609;52.430;4.668;2022-10-16T11:16:23;9.07;;;1.67;;
71777;SDS011;59609;52.430;4.668;2022-10-16T11:21:51;8.73;;;1.33;;
71777;SDS011;59609;52.430;4.668;2022-10-16T11:27:17;7.85;;;1.50;;
71777;SDS011;59609;52.430;4.668;2022-10-16T11:29:54;12.23;;;1.65;;
71777;SDS011;59609;52.430;4.668;2022-10-16T11:32:28;7.80;;;1.60;;
71777;SDS011;59609;52.430;4.668;2022-10-16T11:37:43;11.35;;;1.67;;
71777;SDS011;59609;52.430;4.668;2022-10-16T11:40:19;11.35;;;1.60;;
71777;SDS011;59609;52.430;4.668;2022-10-16T11:43:01;7.50;;;1.52;;
71777;SDS011;59609;52.430;4.668;2022-10-16T11:45:39;8.77;;;1.77;;
71777;SDS011;59609;52.430;4.668;2022-10-16T11:53:13;8.73;;;2.22;;
71777;SDS011;59609;52.430;4.668;2022-10-16T11:55:41;7.05;;;1.65;;
71777;SDS011;59609;52.430;4.668;2022-10-16T12:03:30;7.82;;;1.52;;
71777;SDS011;59609;52.430;4.668;2022-10-16T12:08:55;10.50;;;1.55;;
71777;SDS011;59609;52.430;4.668;2022-10-16T12:14:20;8.50;;;1.45;;
71777;SDS011;59609;52.430;4.668;2022-10-16T12:16:59;6.10;;;1.33;;
71777;SDS011;59609;52.430;4.668;2022-10-16T12:19:30;8.20;;;1.38;;
71777;SDS011;59609;52.430;4.668;2022-10-16T12:21:57;7.82;;;1.30;;
71777;SDS011;59609;52.430;4.668;2022-10-16T12:24:38;8.30;;;1.58;;
71777;SDS011;59609;52.430;4.668;2022-10-16T12:27:18;10.80;;;1.65;;
71777;SDS011;59609;52.430;4.668;2022-10-16T12:30:04;6.28;;;1.52;;
71777;SDS011;59609;52.430;4.668;2022-10-16T12:32:37;7.00;;;1.15;;
71777;SDS011;59609;52.430;4.668;2022-10-16T12:35:04;11.23;;;1.50;;
71777;SDS011;59609;52.430;4.668;2022-10-16T12:37:41;6.50;;;1.58;;
71777;SDS011;59609;52.430;4.668;2022-10-16T12:40:23;5.80;;;1.50;;
71777;SDS011;59609;52.430;4.668;2022-10-16T12:42:49;6.43;;;1.30;;
71777;SDS011;59609;52.430;4.668;2022-10-16T12:45:26;6.15;;;1.52;;
71777;SDS011;59609;52.430;4.668;2022-10-16T12:47:54;12.30;;;1.83;;
71777;SDS011;59609;52.430;4.668;2022-10-16T12:50:24;8.60;;;1.45;;
71777;SDS011;59609;52.430;4.668;2022-10-16T12:53:16;10.52;;;2.33;;
71777;SDS011;59609;52.430;4.668;2022-10-16T12:58:49;9.43;;;2.00;;
71777;SDS011;59609;52.430;4.668;2022-10-16T13:01:34;9.80;;;1.35;;
71777;SDS011;59609;52.430;4.668;2022-10-16T13:04:13;5.43;;;1.20;;
71777;SDS011;59609;52.430;4.668;2022-10-16T13:06:45;5.40;;;1.40;;
71777;SDS011;59609;52.430;4.668;2022-10-16T13:22:53;6.82;;;1.33;;
71777;SDS011;59609;52.430;4.668;2022-10-16T13:28:13;5.20;;;1.08;;
71777;SDS011;59609;52.430;4.668;2022-10-16T13:30:40;8.35;;;1.27;;
71777;SDS011;59609;52.430;4.668;2022-10-16T13:36:05;9.65;;;1.30;;
71777;SDS011;59609;52.430;4.668;2022-10-16T13:38:31;8.13;;;1.30;;
71777;SDS011;59609;52.430;4.668;2022-10-16T13:41:03;4.35;;;1.00;;
71777;SDS011;59609;52.430;4.668;2022-10-16T13:46:18;7.80;;;1.15;;
71777;SDS011;59609;52.430;4.668;2022-10-16T13:48:44;3.65;;;1.02;;
71777;SDS011;59609;52.430;4.668;2022-10-16T13:51:24;7.63;;;1.77;;
71777;SDS011;59609;52.430;4.668;2022-10-16T13:53:50;11.13;;;1.23;;
71777;SDS011;59609;52.430;4.668;2022-10-16T13:56:20;6.95;;;1.10;;
71777;SDS011;59609;52.430;4.668;2022-10-16T13:59:05;14.48;;;2.22;;
71777;SDS011;59609;52.430;4.668;2022-10-16T14:01:41;16.30;;;5.22;;
71777;SDS011;59609;52.430;4.668;2022-10-16T14:04:09;10.93;;;2.83;;
71777;SDS011;59609;52.430;4.668;2022-10-16T14:06:39;17.25;;;3.58;;
71777;SDS011;59609;52.430;4.668;2022-10-16T14:11:45;7.53;;;2.08;;
71777;SDS011;59609;52.430;4.668;2022-10-16T14:14:14;6.40;;;1.65;;
71777;SDS011;59609;52.430;4.668;2022-10-16T14:16:40;8.20;;;1.20;;
71777;SDS011;59609;52.430;4.668;2022-10-16T14:19:24;7.95;;;1.38;;
71777;SDS011;59609;52.430;4.668;2022-10-16T14:21:52;12.20;;;1.33;;
71777;SDS011;59609;52.430;4.668;2022-10-16T14:27:33;9.40;;;1.20;;
71777;SDS011;59609;52.430;4.668;2022-10-16T14:30:19;10.13;;;1.27;;
71777;SDS011;59609;52.430;4.668;2022-10-16T14:33:03;7.95;;;1.17;;
71777;SDS011;59609;52.430;4.668;2022-10-16T14:35:32;8.65;;;1.75;;
71777;SDS011;59609;52.430;4.668;2022-10-16T14:38:00;10.98;;;1.70;;
71777;SDS011;59609;52.430;4.668;2022-10-16T14:40:28;7.50;;;1.02;;
71777;SDS011;59609;52.430;4.668;2022-10-16T14:42:55;10.00;;;1.52;;
71777;SDS011;59609;52.430;4.668;2022-10-16T14:45:22;6.78;;;1.40;;
71777;SDS011;59609;52.430;4.668;2022-10-16T14:47:55;10.80;;;1.45;;
71777;SDS011;59609;52.430;4.668;2022-10-16T14:50:22;6.90;;;1.17;;
71777;SDS011;59609;52.430;4.668;2022-10-16T14:52:48;6.07;;;1.10;;
71777;SDS011;59609;52.430;4.668;2022-10-16T14:55:13;7.80;;;1.20;;
71777;SDS011;59609;52.430;4.668;2022-10-16T14:57:39;9.35;;;1.67;;
71777;SDS011;59609;52.430;4.668;2022-10-16T15:00:21;9.32;;;2.03;;
71777;SDS011;59609;52.430;4.668;2022-10-16T15:02:48;5.60;;;0.95;;
71777;SDS011;59609;52.430;4.668;2022-10-16T15:05:16;5.82;;;1.52;;
71777;SDS011;59609;52.430;4.668;2022-10-16T15:07:44;7.55;;;1.40;;
71777;SDS011;59609;52.430;4.668;2022-10-16T15:10:11;8.98;;;1.67;;
71777;SDS011;59609;52.430;4.668;2022-10-16T15:12:37;7.85;;;1.30;;
71777;SDS011;59609;52.430;4.668;2022-10-16T15:15:37;9.18;;;1.30;;
71777;SDS011;59609;52.430;4.668;2022-10-16T15:18:11;7.82;;;1.58;;
71777;SDS011;59609;52.430;4.668;2022-10-16T15:20:39;8.93;;;1.60;;
71777;SDS011;59609;52.430;4.668;2022-10-16T15:23:26;9.60;;;1.95;;
71777;SDS011;59609;52.430;4.668;2022-10-16T15:25:52;8.68;;;1.77;;
71777;SDS011;59609;52.430;4.668;2022-10-16T15:28:18;6.18;;;1.45;;
71777;SDS011;59609;52.430;4.668;2022-10-16T15:30:45;10.30;;;1.40;;
71777;SDS011;59609;52.430;4.668;2022-10-16T15:33:15;10.60;;;1.63;;
71777;SDS011;59609;52.430;4.668;2022-10-16T15:35:46;8.18;;;1.42;;
71777;SDS011;59609;52.430;4.668;2022-10-16T15:38:13;8.10;;;1.73;;
71777;SDS011;59609;52.430;4.668;2022-10-16T15:40:40;11.63;;;1.50;;
71777;SDS011;59609;52.430;4.668;2022-10-16T15:43:06;6.93;;;1.35;;
71777;SDS011;59609;52.430;4.668;2022-10-16T15:45:32;9.35;;;1.40;;
71777;SDS011;59609;52.430;4.668;2022-10-16T15:47:57;5.38;;;1.20;;
71777;SDS011;59609;52.430;4.668;2022-10-16T15:50:22;7.88;;;1.23;;
71777;SDS011;59609;52.430;4.668;2022-10-16T15:52:49;8.77;;;1.67;;
71777;SDS011;59609;52.430;4.668;2022-10-16T15:55:15;5.93;;;1.20;;
71777;SDS011;59609;52.430;4.668;2022-10-16T15:57:40;6.68;;;1.38;;
71777;SDS011;59609;52.430;4.668;2022-10-16T16:00:11;14.90;;;1.67;;
71777;SDS011;59609;52.430;4.668;2022-10-16T16:02:39;11.43;;;1.95;;
71777;SDS011;59609;52.430;4.668;2022-10-16T16:05:05;12.10;;;1.38;;
71777;SDS011;59609;52.430;4.668;2022-10-16T16:07:33;8.27;;;1.30;;
71777;SDS011;59609;52.430;4.668;2022-10-16T16:09:59;7.32;;;1.35;;
71777;SDS011;59609;52.430;4.668;2022-10-16T16:12:25;10.13;;;1.42;;
71777;SDS011;59609;52.430;4.668;2022-10-16T16:14:50;6.68;;;1.40;;
71777;SDS011;59609;52.430;4.668;2022-10-16T16:17:16;9.85;;;1.52;;
71777;SDS011;59609;52.430;4.668;2022-10-16T16:19:42;13.32;;;1.83;;
71777;SDS011;59609;52.430;4.668;2022-10-16T16:22:07;5.43;;;1.23;;
71777;SDS011;59609;52.430;4.668;2022-10-16T16:24:32;8.85;;;2.83;;
71777;SDS011;59609;52.430;4.668;2022-10-16T16:26:58;10.15;;;3.00;;
71777;SDS011;59609;52.430;4.668;2022-10-16T16:29:23;14.63;;;3.85;;
71777;SDS011;59609;52.430;4.668;2022-10-16T16:31:49;17.23;;;4.18;;
71777;SDS011;59609;52.430;4.668;2022-10-16T16:34:14;11.60;;;3.20;;
71777;SDS011;59609;52.430;4.668;2022-10-16T16:36:40;11.93;;;3.35;;
71777;SDS011;59609;52.430;4.668;2022-10-16T16:39:06;9.20;;;3.03;;
71777;SDS011;59609;52.430;4.668;2022-10-16T16:41:32;12.93;;;2.97;;
71777;SDS011;59609;52.430;4.668;2022-10-16T16:44:05;9.85;;;3.80;;
71777;SDS011;59609;52.430;4.668;2022-10-16T16:46:32;10.55;;;2.60;;